PAFA/FAI METAR and TAF weather

Enter ICAO airport designator
Station Type Date Time Source
PAFA METAR 2022/01/23 10:53 UTC NOAA

PAFA 231053Z 20003KT 10SM SCT075 BKN230 M13/M17 A2963 RMK AO2 SLP046 T11331172 $


Station Type Date Time Source
PAFA Decoded METAR 2022/01/23 10:53 UTC NOAA

Fairbanks, Fairbanks International Airport, AK, United States (PAFA) 64-48-14N 147-52-34W 140M
Jan 23, 2022 - 05:53 AM EST / 2022.01.23 1053 UTC
Wind: from the SSW (200 degrees) at 3 MPH (3 KT):0
Visibility: 10 mile(s):0
Sky conditions: mostly cloudy
Temperature: 8.1 F (-13.3 C)
Dew Point: 1.0 F (-17.2 C)
Relative Humidity: 72%
Pressure (altimeter): 29.63 in. Hg (1003 hPa)
ob: PAFA 231053Z 20003KT 10SM SCT075 BKN230 M13/M17 A2963 RMK AO2 SLP046 T11331172
cycle: 11

Station Type Date Time Source
PAFA TAF 2022/01/23 12:51 UTC NOAA

TAF TAF PAFA 231140Z 2312/2418 VRB03KT P6SM SCT070 BKN250
FM232100 VRB03KT P6SM VCSH BKN100
FM240300 VRB03KT P6SM FEW050 SCT150

Example: see airport list